sensor_id;sensor_type;location;lat;lon;timestamp;temperature;humidity
16182;DHT22;8197;51.664;7.114;2024-01-07T00:02:19;8.30;67.10
16182;DHT22;8197;51.664;7.114;2024-01-07T00:07:22;8.00;67.00
16182;DHT22;8197;51.664;7.114;2024-01-07T00:12:26;8.00;70.40
16182;DHT22;8197;51.664;7.114;2024-01-07T00:17:29;8.30;67.50
16182;DHT22;8197;51.664;7.114;2024-01-07T00:22:32;8.00;69.20
16182;DHT22;8197;51.664;7.114;2024-01-07T00:27:36;7.60;68.50
16182;DHT22;8197;51.664;7.114;2024-01-07T00:32:39;6.90;69.90
16182;DHT22;8197;51.664;7.114;2024-01-07T00:37:42;6.50;73.20
16182;DHT22;8197;51.664;7.114;2024-01-07T00:42:46;6.80;73.10
16182;DHT22;8197;51.664;7.114;2024-01-07T00:47:49;6.80;71.70
16182;DHT22;8197;51.664;7.114;2024-01-07T00:52:52;6.60;75.00
16182;DHT22;8197;51.664;7.114;2024-01-07T00:57:56;7.10;72.70
16182;DHT22;8197;51.664;7.114;2024-01-07T01:02:59;7.10;70.40
16182;DHT22;8197;51.664;7.114;2024-01-07T01:08:02;7.50;68.40
16182;DHT22;8197;51.664;7.114;2024-01-07T01:13:07;6.80;71.90
16182;DHT22;8197;51.664;7.114;2024-01-07T01:18:10;6.80;72.40
16182;DHT22;8197;51.664;7.114;2024-01-07T01:23:14;6.80;72.40
16182;DHT22;8197;51.664;7.114;2024-01-07T01:28:18;7.30;70.00
16182;DHT22;8197;51.664;7.114;2024-01-07T01:33:21;6.80;70.80
16182;DHT22;8197;51.664;7.114;2024-01-07T01:38:25;6.90;72.00
16182;DHT22;8197;51.664;7.114;2024-01-07T01:43:29;6.30;71.80
16182;DHT22;8197;51.664;7.114;2024-01-07T01:48:32;5.70;75.30
16182;DHT22;8197;51.664;7.114;2024-01-07T01:53:36;5.70;74.00
16182;DHT22;8197;51.664;7.114;2024-01-07T01:58:42;6.10;76.10
16182;DHT22;8197;51.664;7.114;2024-01-07T02:03:45;5.90;73.00
16182;DHT22;8197;51.664;7.114;2024-01-07T02:08:48;6.20;71.20
16182;DHT22;8197;51.664;7.114;2024-01-07T02:13:53;6.20;72.80
16182;DHT22;8197;51.664;7.114;2024-01-07T02:18:56;5.90;72.90
16182;DHT22;8197;51.664;7.114;2024-01-07T02:24:05;5.70;74.40
16182;DHT22;8197;51.664;7.114;2024-01-07T02:29:08;5.70;74.60
16182;DHT22;8197;51.664;7.114;2024-01-07T02:34:11;6.00;72.70
16182;DHT22;8197;51.664;7.114;2024-01-07T02:39:15;5.70;74.80
16182;DHT22;8197;51.664;7.114;2024-01-07T02:44:18;5.50;74.80
16182;DHT22;8197;51.664;7.114;2024-01-07T02:49:21;5.30;74.10
16182;DHT22;8197;51.664;7.114;2024-01-07T02:54:26;6.10;74.20
16182;DHT22;8197;51.664;7.114;2024-01-07T02:59:29;6.30;69.40
16182;DHT22;8197;51.664;7.114;2024-01-07T03:04:32;5.80;71.10
16182;DHT22;8197;51.664;7.114;2024-01-07T03:09:36;5.90;73.40
16182;DHT22;8197;51.664;7.114;2024-01-07T03:14:40;5.60;72.90
16182;DHT22;8197;51.664;7.114;2024-01-07T03:19:43;5.30;75.60
16182;DHT22;8197;51.664;7.114;2024-01-07T03:24:48;5.70;74.60
16182;DHT22;8197;51.664;7.114;2024-01-07T03:29:51;6.00;74.20
16182;DHT22;8197;51.664;7.114;2024-01-07T03:34:54;6.50;69.70
16182;DHT22;8197;51.664;7.114;2024-01-07T03:39:58;6.30;70.20
16182;DHT22;8197;51.664;7.114;2024-01-07T03:45:01;6.60;70.70
16182;DHT22;8197;51.664;7.114;2024-01-07T03:50:05;6.30;70.50
16182;DHT22;8197;51.664;7.114;2024-01-07T03:55:09;5.70;72.40
16182;DHT22;8197;51.664;7.114;2024-01-07T04:00:13;6.40;70.60
16182;DHT22;8197;51.664;7.114;2024-01-07T04:05:16;6.00;70.40
16182;DHT22;8197;51.664;7.114;2024-01-07T04:10:20;5.60;72.10
16182;DHT22;8197;51.664;7.114;2024-01-07T04:15:23;5.10;74.50
16182;DHT22;8197;51.664;7.114;2024-01-07T04:20:26;5.70;73.00
16182;DHT22;8197;51.664;7.114;2024-01-07T04:25:31;5.60;71.60
16182;DHT22;8197;51.664;7.114;2024-01-07T04:30:34;5.30;72.50
16182;DHT22;8197;51.664;7.114;2024-01-07T04:35:37;5.00;73.90
16182;DHT22;8197;51.664;7.114;2024-01-07T04:40:41;4.60;74.20
16182;DHT22;8197;51.664;7.114;2024-01-07T04:45:44;5.40;72.10
16182;DHT22;8197;51.664;7.114;2024-01-07T04:50:47;5.70;72.70
16182;DHT22;8197;51.664;7.114;2024-01-07T04:55:51;5.90;71.30
16182;DHT22;8197;51.664;7.114;2024-01-07T05:00:54;5.40;73.10
16182;DHT22;8197;51.664;7.114;2024-01-07T05:05:57;5.20;73.40
16182;DHT22;8197;51.664;7.114;2024-01-07T05:11:01;5.50;72.60
16182;DHT22;8197;51.664;7.114;2024-01-07T05:16:04;5.20;73.50
16182;DHT22;8197;51.664;7.114;2024-01-07T05:21:08;5.50;73.10
16182;DHT22;8197;51.664;7.114;2024-01-07T05:26:12;5.20;72.40
16182;DHT22;8197;51.664;7.114;2024-01-07T05:31:15;5.20;71.80
16182;DHT22;8197;51.664;7.114;2024-01-07T05:36:18;5.50;71.80
16182;DHT22;8197;51.664;7.114;2024-01-07T05:41:23;4.70;75.00
16182;DHT22;8197;51.664;7.114;2024-01-07T05:46:25;4.70;75.00
16182;DHT22;8197;51.664;7.114;2024-01-07T05:51:28;5.20;73.70
16182;DHT22;8197;51.664;7.114;2024-01-07T05:56:37;5.00;72.60
16182;DHT22;8197;51.664;7.114;2024-01-07T06:01:40;4.60;73.40
16182;DHT22;8197;51.664;7.114;2024-01-07T06:06:43;4.70;75.80
16182;DHT22;8197;51.664;7.114;2024-01-07T06:11:48;5.30;72.60
16182;DHT22;8197;51.664;7.114;2024-01-07T06:16:51;5.60;72.10
16182;DHT22;8197;51.664;7.114;2024-01-07T06:21:54;5.40;74.00
16182;DHT22;8197;51.664;7.114;2024-01-07T06:26:58;5.60;73.90
16182;DHT22;8197;51.664;7.114;2024-01-07T06:32:01;4.80;74.70
16182;DHT22;8197;51.664;7.114;2024-01-07T06:37:05;4.80;74.80
16182;DHT22;8197;51.664;7.114;2024-01-07T06:42:11;4.60;76.40
16182;DHT22;8197;51.664;7.114;2024-01-07T06:47:13;4.90;74.70
16182;DHT22;8197;51.664;7.114;2024-01-07T06:52:17;4.80;74.80
16182;DHT22;8197;51.664;7.114;2024-01-07T06:57:27;4.10;77.50
16182;DHT22;8197;51.664;7.114;2024-01-07T07:02:30;4.50;77.30
16182;DHT22;8197;51.664;7.114;2024-01-07T07:07:33;5.00;74.70
16182;DHT22;8197;51.664;7.114;2024-01-07T07:12:37;4.80;73.50
16182;DHT22;8197;51.664;7.114;2024-01-07T07:17:40;4.80;73.50
16182;DHT22;8197;51.664;7.114;2024-01-07T07:22:43;4.70;71.60
16182;DHT22;8197;51.664;7.114;2024-01-07T07:27:47;4.40;73.40
16182;DHT22;8197;51.664;7.114;2024-01-07T07:32:50;4.30;72.70
16182;DHT22;8197;51.664;7.114;2024-01-07T07:37:54;4.40;72.60
16182;DHT22;8197;51.664;7.114;2024-01-07T07:42:58;4.20;73.80
16182;DHT22;8197;51.664;7.114;2024-01-07T07:48:01;4.60;72.70
16182;DHT22;8197;51.664;7.114;2024-01-07T07:53:07;4.70;72.20
16182;DHT22;8197;51.664;7.114;2024-01-07T07:58:12;4.80;71.60
16182;DHT22;8197;51.664;7.114;2024-01-07T08:03:16;4.80;69.90
16182;DHT22;8197;51.664;7.114;2024-01-07T08:08:20;4.80;70.80
16182;DHT22;8197;51.664;7.114;2024-01-07T08:13:24;5.20;70.60
16182;DHT22;8197;51.664;7.114;2024-01-07T08:18:27;4.80;69.70
16182;DHT22;8197;51.664;7.114;2024-01-07T08:23:30;4.80;70.80
16182;DHT22;8197;51.664;7.114;2024-01-07T08:28:35;4.90;70.50
16182;DHT22;8197;51.664;7.114;2024-01-07T08:33:38;4.80;70.00
16182;DHT22;8197;51.664;7.114;2024-01-07T08:38:41;4.40;70.10
16182;DHT22;8197;51.664;7.114;2024-01-07T08:43:46;4.50;72.90
16182;DHT22;8197;51.664;7.114;2024-01-07T08:48:49;4.10;71.20
16182;DHT22;8197;51.664;7.114;2024-01-07T08:53:52;4.00;72.40
16182;DHT22;8197;51.664;7.114;2024-01-07T08:58:56;4.10;72.30
16182;DHT22;8197;51.664;7.114;2024-01-07T09:04:00;4.50;70.00
16182;DHT22;8197;51.664;7.114;2024-01-07T09:09:03;4.50;69.60
16182;DHT22;8197;51.664;7.114;2024-01-07T09:14:09;4.00;70.70
16182;DHT22;8197;51.664;7.114;2024-01-07T09:19:12;4.30;70.00
16182;DHT22;8197;51.664;7.114;2024-01-07T09:24:16;3.80;70.10
16182;DHT22;8197;51.664;7.114;2024-01-07T09:29:21;3.70;71.70
16182;DHT22;8197;51.664;7.114;2024-01-07T09:34:24;4.20;70.70
16182;DHT22;8197;51.664;7.114;2024-01-07T09:39:28;4.00;70.00
16182;DHT22;8197;51.664;7.114;2024-01-07T09:44:33;3.80;70.70
16182;DHT22;8197;51.664;7.114;2024-01-07T09:49:36;3.90;69.70
16182;DHT22;8197;51.664;7.114;2024-01-07T09:54:40;4.10;69.50
16182;DHT22;8197;51.664;7.114;2024-01-07T09:59:45;4.00;69.30
16182;DHT22;8197;51.664;7.114;2024-01-07T10:04:49;4.00;68.60
16182;DHT22;8197;51.664;7.114;2024-01-07T10:09:52;4.20;66.90
16182;DHT22;8197;51.664;7.114;2024-01-07T10:14:59;4.00;68.20
16182;DHT22;8197;51.664;7.114;2024-01-07T10:20:04;3.80;70.10
16182;DHT22;8197;51.664;7.114;2024-01-07T10:25:10;4.00;69.10
16182;DHT22;8197;51.664;7.114;2024-01-07T10:30:16;3.40;69.70
16182;DHT22;8197;51.664;7.114;2024-01-07T10:35:20;3.30;68.20
16182;DHT22;8197;51.664;7.114;2024-01-07T10:40:26;3.60;68.10
16182;DHT22;8197;51.664;7.114;2024-01-07T10:45:31;3.20;67.50
16182;DHT22;8197;51.664;7.114;2024-01-07T10:50:34;3.60;67.50
16182;DHT22;8197;51.664;7.114;2024-01-07T10:55:40;3.90;66.70
16182;DHT22;8197;51.664;7.114;2024-01-07T11:00:47;3.50;64.50
16182;DHT22;8197;51.664;7.114;2024-01-07T11:05:56;3.40;66.00
16182;DHT22;8197;51.664;7.114;2024-01-07T11:11:04;3.30;65.20
16182;DHT22;8197;51.664;7.114;2024-01-07T11:16:10;3.30;65.30
16182;DHT22;8197;51.664;7.114;2024-01-07T11:21:20;3.20;65.30
16182;DHT22;8197;51.664;7.114;2024-01-07T11:26:23;3.60;66.00
16182;DHT22;8197;51.664;7.114;2024-01-07T11:31:45;3.70;66.10
16182;DHT22;8197;51.664;7.114;2024-01-07T11:36:49;4.20;63.70
16182;DHT22;8197;51.664;7.114;2024-01-07T11:41:53;3.40;65.20
16182;DHT22;8197;51.664;7.114;2024-01-07T11:46:57;3.80;63.70
16182;DHT22;8197;51.664;7.114;2024-01-07T11:52:00;3.50;65.90
16182;DHT22;8197;51.664;7.114;2024-01-07T11:57:04;3.50;64.40
16182;DHT22;8197;51.664;7.114;2024-01-07T12:02:08;3.10;64.50
16182;DHT22;8197;51.664;7.114;2024-01-07T12:07:11;3.20;65.80
16182;DHT22;8197;51.664;7.114;2024-01-07T12:12:16;3.30;63.90
16182;DHT22;8197;51.664;7.114;2024-01-07T12:17:21;3.20;64.50
16182;DHT22;8197;51.664;7.114;2024-01-07T12:22:24;2.90;63.90
16182;DHT22;8197;51.664;7.114;2024-01-07T12:27:29;3.40;63.20
16182;DHT22;8197;51.664;7.114;2024-01-07T12:32:34;3.40;63.80
16182;DHT22;8197;51.664;7.114;2024-01-07T12:37:37;3.20;63.00
16182;DHT22;8197;51.664;7.114;2024-01-07T12:42:41;3.70;62.40
16182;DHT22;8197;51.664;7.114;2024-01-07T12:47:48;3.70;60.70
16182;DHT22;8197;51.664;7.114;2024-01-07T12:52:51;3.30;60.30
16182;DHT22;8197;51.664;7.114;2024-01-07T12:57:54;3.50;60.50
16182;DHT22;8197;51.664;7.114;2024-01-07T13:03:00;3.90;58.10
16182;DHT22;8197;51.664;7.114;2024-01-07T13:08:03;3.10;58.70
16182;DHT22;8197;51.664;7.114;2024-01-07T13:13:06;3.20;59.80
16182;DHT22;8197;51.664;7.114;2024-01-07T13:18:18;2.90;59.40
16182;DHT22;8197;51.664;7.114;2024-01-07T13:23:22;3.20;60.00
16182;DHT22;8197;51.664;7.114;2024-01-07T13:28:25;2.90;59.10
16182;DHT22;8197;51.664;7.114;2024-01-07T13:33:29;2.80;60.40
16182;DHT22;8197;51.664;7.114;2024-01-07T13:38:32;3.10;60.30
16182;DHT22;8197;51.664;7.114;2024-01-07T13:43:35;3.30;59.80
16182;DHT22;8197;51.664;7.114;2024-01-07T13:48:40;3.80;58.40
16182;DHT22;8197;51.664;7.114;2024-01-07T13:53:45;3.30;58.60
16182;DHT22;8197;51.664;7.114;2024-01-07T13:58:48;3.50;58.40
16182;DHT22;8197;51.664;7.114;2024-01-07T14:03:53;3.30;58.30
16182;DHT22;8197;51.664;7.114;2024-01-07T14:08:58;3.40;58.60
16182;DHT22;8197;51.664;7.114;2024-01-07T14:14:01;3.30;58.70
16182;DHT22;8197;51.664;7.114;2024-01-07T14:19:06;3.50;58.80
16182;DHT22;8197;51.664;7.114;2024-01-07T14:24:09;3.30;59.80
16182;DHT22;8197;51.664;7.114;2024-01-07T14:29:12;3.30;59.00
16182;DHT22;8197;51.664;7.114;2024-01-07T14:34:20;3.80;59.90
16182;DHT22;8197;51.664;7.114;2024-01-07T14:39:23;3.90;57.60
16182;DHT22;8197;51.664;7.114;2024-01-07T14:44:27;3.40;59.50
16182;DHT22;8197;51.664;7.114;2024-01-07T14:49:46;3.30;59.60
16182;DHT22;8197;51.664;7.114;2024-01-07T14:54:49;3.30;60.50
16182;DHT22;8197;51.664;7.114;2024-01-07T14:59:52;3.50;60.20
16182;DHT22;8197;51.664;7.114;2024-01-07T15:04:56;3.40;60.80
16182;DHT22;8197;51.664;7.114;2024-01-07T15:09:59;4.00;58.80
16182;DHT22;8197;51.664;7.114;2024-01-07T15:15:03;3.70;59.50
16182;DHT22;8197;51.664;7.114;2024-01-07T15:20:10;3.50;60.40
16182;DHT22;8197;51.664;7.114;2024-01-07T15:25:14;3.70;60.30
16182;DHT22;8197;51.664;7.114;2024-01-07T15:30:17;3.50;60.40
16182;DHT22;8197;51.664;7.114;2024-01-07T15:35:21;3.70;59.50
16182;DHT22;8197;51.664;7.114;2024-01-07T15:40:24;3.60;61.50
16182;DHT22;8197;51.664;7.114;2024-01-07T15:45:28;3.70;61.20
16182;DHT22;8197;51.664;7.114;2024-01-07T15:50:33;3.30;62.10
16182;DHT22;8197;51.664;7.114;2024-01-07T15:55:35;3.30;62.50
16182;DHT22;8197;51.664;7.114;2024-01-07T16:00:38;3.40;63.60
16182;DHT22;8197;51.664;7.114;2024-01-07T16:05:43;3.30;63.70
16182;DHT22;8197;51.664;7.114;2024-01-07T16:10:46;3.30;63.90
16182;DHT22;8197;51.664;7.114;2024-01-07T16:15:49;3.10;64.40
16182;DHT22;8197;51.664;7.114;2024-01-07T16:20:54;3.40;64.40
16182;DHT22;8197;51.664;7.114;2024-01-07T16:25:57;4.10;62.70
16182;DHT22;8197;51.664;7.114;2024-01-07T16:31:00;3.80;62.30
16182;DHT22;8197;51.664;7.114;2024-01-07T16:36:06;3.60;63.70
16182;DHT22;8197;51.664;7.114;2024-01-07T16:41:10;3.70;63.50
16182;DHT22;8197;51.664;7.114;2024-01-07T16:46:14;3.40;64.30
16182;DHT22;8197;51.664;7.114;2024-01-07T16:51:18;3.20;66.00
16182;DHT22;8197;51.664;7.114;2024-01-07T16:56:22;3.30;65.70
16182;DHT22;8197;51.664;7.114;2024-01-07T17:01:25;3.80;64.60
16182;DHT22;8197;51.664;7.114;2024-01-07T17:06:30;3.90;64.10
16182;DHT22;8197;51.664;7.114;2024-01-07T17:11:33;3.50;64.80
16182;DHT22;8197;51.664;7.114;2024-01-07T17:16:39;3.50;65.90
16182;DHT22;8197;51.664;7.114;2024-01-07T17:21:43;3.20;65.50
16182;DHT22;8197;51.664;7.114;2024-01-07T17:26:48;3.50;64.80
16182;DHT22;8197;51.664;7.114;2024-01-07T17:31:52;3.50;64.70
16182;DHT22;8197;51.664;7.114;2024-01-07T17:36:56;3.40;64.70
16182;DHT22;8197;51.664;7.114;2024-01-07T17:42:00;2.60;67.00
16182;DHT22;8197;51.664;7.114;2024-01-07T17:47:07;2.80;66.90
16182;DHT22;8197;51.664;7.114;2024-01-07T17:52:11;3.10;67.40
16182;DHT22;8197;51.664;7.114;2024-01-07T17:57:15;2.90;66.90
16182;DHT22;8197;51.664;7.114;2024-01-07T18:02:18;2.70;67.70
16182;DHT22;8197;51.664;7.114;2024-01-07T18:07:22;3.00;66.40
16182;DHT22;8197;51.664;7.114;2024-01-07T18:12:27;2.80;67.10
16182;DHT22;8197;51.664;7.114;2024-01-07T18:17:31;3.50;63.90
16182;DHT22;8197;51.664;7.114;2024-01-07T18:22:36;3.60;63.80
16182;DHT22;8197;51.664;7.114;2024-01-07T18:27:40;3.30;66.00
16182;DHT22;8197;51.664;7.114;2024-01-07T18:32:44;3.30;63.50
16182;DHT22;8197;51.664;7.114;2024-01-07T18:37:49;3.80;62.40
16182;DHT22;8197;51.664;7.114;2024-01-07T18:42:53;3.70;61.60
16182;DHT22;8197;51.664;7.114;2024-01-07T18:47:56;3.50;62.00
16182;DHT22;8197;51.664;7.114;2024-01-07T18:53:00;3.30;62.30
16182;DHT22;8197;51.664;7.114;2024-01-07T18:58:03;3.30;64.10
16182;DHT22;8197;51.664;7.114;2024-01-07T19:03:07;3.20;63.30
16182;DHT22;8197;51.664;7.114;2024-01-07T19:08:11;3.60;62.10
16182;DHT22;8197;51.664;7.114;2024-01-07T19:13:14;3.40;62.50
16182;DHT22;8197;51.664;7.114;2024-01-07T19:18:19;3.20;62.80
16182;DHT22;8197;51.664;7.114;2024-01-07T19:23:24;3.60;63.70
16182;DHT22;8197;51.664;7.114;2024-01-07T19:28:27;3.80;61.60
16182;DHT22;8197;51.664;7.114;2024-01-07T19:33:30;3.60;62.10
16182;DHT22;8197;51.664;7.114;2024-01-07T19:38:36;3.30;63.30
16182;DHT22;8197;51.664;7.114;2024-01-07T19:43:39;4.10;60.90
16182;DHT22;8197;51.664;7.114;2024-01-07T19:48:42;3.40;61.50
16182;DHT22;8197;51.664;7.114;2024-01-07T19:53:47;3.40;62.70
16182;DHT22;8197;51.664;7.114;2024-01-07T19:58:50;3.20;63.70
16182;DHT22;8197;51.664;7.114;2024-01-07T20:03:53;3.40;62.60
16182;DHT22;8197;51.664;7.114;2024-01-07T20:08:58;4.00;60.70
16182;DHT22;8197;51.664;7.114;2024-01-07T20:14:01;3.70;61.50
16182;DHT22;8197;51.664;7.114;2024-01-07T20:19:04;3.60;61.30
16182;DHT22;8197;51.664;7.114;2024-01-07T20:24:09;3.20;62.80
16182;DHT22;8197;51.664;7.114;2024-01-07T20:29:12;4.30;60.70
16182;DHT22;8197;51.664;7.114;2024-01-07T20:34:15;4.10;61.50
16182;DHT22;8197;51.664;7.114;2024-01-07T20:39:22;3.70;61.50
16182;DHT22;8197;51.664;7.114;2024-01-07T20:44:26;3.30;63.10
16182;DHT22;8197;51.664;7.114;2024-01-07T20:49:29;3.80;61.90
16182;DHT22;8197;51.664;7.114;2024-01-07T20:54:34;3.90;61.20
16182;DHT22;8197;51.664;7.114;2024-01-07T20:59:38;3.30;62.50
16182;DHT22;8197;51.664;7.114;2024-01-07T21:04:43;3.10;62.90
16182;DHT22;8197;51.664;7.114;2024-01-07T21:09:49;3.40;60.80
16182;DHT22;8197;51.664;7.114;2024-01-07T21:14:52;3.60;61.00
16182;DHT22;8197;51.664;7.114;2024-01-07T21:19:55;3.60;61.00
16182;DHT22;8197;51.664;7.114;2024-01-07T21:25:00;3.20;61.60
16182;DHT22;8197;51.664;7.114;2024-01-07T21:30:04;3.40;61.00
16182;DHT22;8197;51.664;7.114;2024-01-07T21:35:08;3.70;59.80
16182;DHT22;8197;51.664;7.114;2024-01-07T21:40:12;3.60;60.20
16182;DHT22;8197;51.664;7.114;2024-01-07T21:45:17;3.70;61.10
16182;DHT22;8197;51.664;7.114;2024-01-07T21:50:20;3.30;62.20
16182;DHT22;8197;51.664;7.114;2024-01-07T21:55:25;3.40;62.30
16182;DHT22;8197;51.664;7.114;2024-01-07T22:00:28;4.00;60.60
16182;DHT22;8197;51.664;7.114;2024-01-07T22:05:31;3.00;63.70
16182;DHT22;8197;51.664;7.114;2024-01-07T22:10:38;3.80;61.30
16182;DHT22;8197;51.664;7.114;2024-01-07T22:15:41;4.40;57.80
16182;DHT22;8197;51.664;7.114;2024-01-07T22:20:44;4.30;58.40
16182;DHT22;8197;51.664;7.114;2024-01-07T22:25:48;3.30;59.70
16182;DHT22;8197;51.664;7.114;2024-01-07T22:30:51;4.10;58.20
16182;DHT22;8197;51.664;7.114;2024-01-07T22:35:58;4.40;56.80
16182;DHT22;8197;51.664;7.114;2024-01-07T22:41:02;4.40;54.90
16182;DHT22;8197;51.664;7.114;2024-01-07T22:46:06;3.80;56.60
16182;DHT22;8197;51.664;7.114;2024-01-07T22:51:09;3.40;58.00
16182;DHT22;8197;51.664;7.114;2024-01-07T22:56:13;3.90;57.40
16182;DHT22;8197;51.664;7.114;2024-01-07T23:01:26;4.10;57.70
16182;DHT22;8197;51.664;7.114;2024-01-07T23:06:29;4.50;55.00
16182;DHT22;8197;51.664;7.114;2024-01-07T23:11:37;4.70;55.50
16182;DHT22;8197;51.664;7.114;2024-01-07T23:16:40;4.10;56.00
16182;DHT22;8197;51.664;7.114;2024-01-07T23:21:44;3.40;58.10
16182;DHT22;8197;51.664;7.114;2024-01-07T23:26:50;3.70;57.10
16182;DHT22;8197;51.664;7.114;2024-01-07T23:31:56;3.40;58.50
16182;DHT22;8197;51.664;7.114;2024-01-07T23:37:04;4.10;57.30
16182;DHT22;8197;51.664;7.114;2024-01-07T23:42:09;4.00;56.50
16182;DHT22;8197;51.664;7.114;2024-01-07T23:47:12;2.70;58.30
16182;DHT22;8197;51.664;7.114;2024-01-07T23:52:15;3.00;58.00
16182;DHT22;8197;51.664;7.114;2024-01-07T23:57:20;2.80;57.10
